OISF  Fasa  Airport

Fasa, Iran

Add Bookmark
ICAO OISF
IATA FAZ
Type Airport
Status Operational
Latitude
28° 53' 30" N
28.891800
Longitude
53° 43' 23" E
53.723301
Local (DST + 5) UTC (GMT + 4)
Aug 29, 2015 11:49 Aug 29, 2015 07:19
Sunrise-Sunset Local UTC
Begin Civil Twilight 06:06 01:36
Sunrise 06:30 02:00
Sunset 07:21 14:51
End Civil Twilight 07:46 15:16
VFR
VFR
MVFR
MVFR
IFR
IFR
LIFR
LIFR
Unknown
Unavailable

Current Weather

METAR Observed VFR
OISF 290700Z 00000KT CAVOK 39/02 Q1013 Sat, Aug 29, 2015 @ 07:00 UTC
(19 Minutes ago)
Visual Flight Rules
Wind Visibility Conditions
Calm 10 km or more
  • No significant weather
Temperatures Readings Precipitation
Current Temp
39°C
102°F
Dewpoint
2°C
36°F
Humidity 10%
Altimeter 29.91" Hg
Sea Level Pressure 1,013 mb
Field Elevation
1,383 m
4,537 ft
None Recorded
-
-

CheckWX.com is intended as a tool to help pilots better visualize weather data. It is not intended as a substitute for an official weather briefing obtained from a Flight Service Station. CheckWX.com does not meet the FAA requirements for an official pre-flight weather briefing. Therefore, it's important that pilots still call and obtain an official FSS pre-flight weather briefing.

© 2007-2015 CheckWX.com
07:19:44 UTC